Kleberg, Texas
Current Conditions -  °F | °C
As of 7:55 PM on Monday 24 Nov 2014 (Local Time) from KLNC Reporting Station
Clear Clear  
Wind Chill: 46°   Ceiling: Unl
Heat Index: 46°   Visibility: 10mi
Dew Point: 26°   Wind: 3mph
Humidity: 47%   Direction: 280°W
Pressure: 30.12"   Gusts: NA
Location:  32.6719°N, 96.62°W
Report Text: KLNC 250155Z AUTO 28003KT 10SM CLR 08/M03 A3012 RMK AO2 T00761031
Loading
Personal Weather Stations






























Interactive Weather Map New forecast layout! Learn more

10-Day Weather Forecast

Advertisements
Track Severe Weather on mobile